createdAt,value
2019-03-10T00:00:48.382Z,89.40
2019-03-10T00:03:20.504Z,89.20
2019-03-10T00:05:51.093Z,89.10
2019-03-10T00:08:21.550Z,89.10
2019-03-10T00:10:52.037Z,89.10
2019-03-10T00:13:22.506Z,89.10
2019-03-10T00:15:54.516Z,89.10
2019-03-10T00:18:26.225Z,89.00
2019-03-10T00:20:56.716Z,89.00
2019-03-10T00:23:27.574Z,89.00
2019-03-10T00:25:58.154Z,89.30
2019-03-10T00:28:28.745Z,89.20
2019-03-10T00:30:59.334Z,89.20
2019-03-10T00:33:29.773Z,89.10
2019-03-10T00:36:00.273Z,89.00
2019-03-10T00:38:43.293Z,89.10
2019-03-10T00:41:30.461Z,89.10
2019-03-10T00:44:47.036Z,89.00
2019-03-10T00:47:55.145Z,89.10
2019-03-10T00:51:07.159Z,89.00
2019-03-10T00:53:37.609Z,89.00
2019-03-10T00:56:08.286Z,89.10
2019-03-10T00:58:39.393Z,89.20
2019-03-10T01:01:09.916Z,89.10
2019-03-10T01:03:40.457Z,89.00
2019-03-10T01:06:11.052Z,89.10
2019-03-10T01:08:42.380Z,89.10
2019-03-10T01:11:12.930Z,89.10
2019-03-10T01:13:43.641Z,89.00
2019-03-10T01:16:14.298Z,88.90
2019-03-10T01:18:45.477Z,88.80
2019-03-10T01:21:17.185Z,88.80
2019-03-10T01:23:49.323Z,88.60
2019-03-10T01:26:19.781Z,88.50
2019-03-10T01:28:50.244Z,88.40
2019-03-10T01:31:40.650Z,88.40
2019-03-10T01:34:46.248Z,88.70
2019-03-10T01:37:16.705Z,88.70
2019-03-10T01:39:47.242Z,88.60
2019-03-10T01:42:17.819Z,88.70
2019-03-10T01:44:48.340Z,88.70
2019-03-10T01:47:18.916Z,88.70
2019-03-10T01:49:49.469Z,88.70
2019-03-10T01:52:20.351Z,88.80
2019-03-10T01:54:50.956Z,88.80
2019-03-10T01:57:21.484Z,89.30
2019-03-10T01:59:51.949Z,89.10
2019-03-10T02:02:25.503Z,89.20
2019-03-10T02:04:54.681Z,89.10
2019-03-10T02:07:25.682Z,89.10
2019-03-10T02:09:56.251Z,89.40
2019-03-10T02:12:27.482Z,89.20
2019-03-10T02:14:59.188Z,89.40
2019-03-10T02:17:30.761Z,89.70
2019-03-10T02:20:01.209Z,89.40
2019-03-10T02:22:32.745Z,89.50
2019-03-10T02:25:03.266Z,89.50
2019-03-10T02:27:33.774Z,89.80
2019-03-10T02:30:05.075Z,90.00
2019-03-10T02:32:35.624Z,90.10
2019-03-10T02:35:06.084Z,90.20
2019-03-10T02:37:36.558Z,90.20
2019-03-10T02:40:07.599Z,90.40
2019-03-10T02:42:38.223Z,90.40
2019-03-10T02:45:09.198Z,90.40
2019-03-10T02:47:39.672Z,90.50
2019-03-10T02:50:10.620Z,90.60
2019-03-10T02:52:41.143Z,90.70
2019-03-10T02:55:11.808Z,90.70
2019-03-10T02:57:42.382Z,90.70
2019-03-10T03:00:14.062Z,90.90
2019-03-10T03:02:44.559Z,90.80
2019-03-10T03:05:15.394Z,90.80
2019-03-10T03:07:45.950Z,91.00
2019-03-10T03:10:16.512Z,91.10
2019-03-10T03:12:47.049Z,91.10
2019-03-10T03:15:17.729Z,91.20
2019-03-10T03:17:48.173Z,91.10
2019-03-10T03:20:18.634Z,91.20
2019-03-10T03:22:49.110Z,91.10
2019-03-10T03:25:19.652Z,91.10
2019-03-10T03:27:50.398Z,91.20
2019-03-10T03:30:21.008Z,91.30
2019-03-10T03:32:51.783Z,91.30
2019-03-10T03:35:51.445Z,91.40
2019-03-10T03:38:34.487Z,91.30
2019-03-10T03:41:07.666Z,91.30
2019-03-10T03:43:38.127Z,91.30
2019-03-10T03:46:09.082Z,91.30
2019-03-10T03:48:39.622Z,91.40
2019-03-10T03:51:10.089Z,91.50
2019-03-10T03:53:40.571Z,91.60
2019-03-10T03:56:11.039Z,91.70
2019-03-10T03:58:41.468Z,91.80
2019-03-10T04:01:30.953Z,91.80
2019-03-10T04:04:01.390Z,92.20
2019-03-10T04:06:31.882Z,91.90
2019-03-10T04:09:02.326Z,91.80
2019-03-10T04:11:34.634Z,91.80
2019-03-10T04:14:05.274Z,91.90
2019-03-10T04:16:35.757Z,92.00
2019-03-10T04:19:06.229Z,92.00
2019-03-10T04:21:36.733Z,92.00
2019-03-10T04:24:07.190Z,92.00
2019-03-10T04:26:37.700Z,92.00
2019-03-10T04:29:08.213Z,92.00
2019-03-10T04:31:38.641Z,91.90
2019-03-10T04:34:09.147Z,91.90
2019-03-10T04:36:39.585Z,91.90
2019-03-10T04:39:10.093Z,92.10
2019-03-10T04:41:40.636Z,92.10
2019-03-10T04:44:11.117Z,92.20
2019-03-10T04:46:41.582Z,92.30
2019-03-10T04:49:12.308Z,92.30
2019-03-10T04:51:42.750Z,92.40
2019-03-10T04:54:14.269Z,92.40
2019-03-10T04:56:54.962Z,92.50
2019-03-10T04:59:25.503Z,92.40
2019-03-10T05:01:56.021Z,92.40
2019-03-10T05:04:26.600Z,92.50
2019-03-10T05:06:57.160Z,92.50
2019-03-10T05:09:27.688Z,92.50
2019-03-10T05:11:58.129Z,92.70
2019-03-10T05:14:28.648Z,92.80
2019-03-10T05:16:59.104Z,92.80
2019-03-10T05:19:29.590Z,92.90
2019-03-10T05:22:00.036Z,92.80
2019-03-10T05:24:30.868Z,92.90
2019-03-10T05:27:01.377Z,92.90
2019-03-10T05:29:32.081Z,92.80
2019-03-10T05:32:02.544Z,92.80
2019-03-10T05:34:33.046Z,92.70
2019-03-10T05:37:03.536Z,92.60
2019-03-10T05:39:34.548Z,92.70
2019-03-10T05:42:04.995Z,92.60
2019-03-10T05:44:35.429Z,92.90
2019-03-10T05:47:06.139Z,92.60
2019-03-10T05:49:36.563Z,92.60
2019-03-10T05:52:07.117Z,92.60
2019-03-10T05:54:37.587Z,92.60
2019-03-10T05:57:08.067Z,92.70
2019-03-10T05:59:38.939Z,92.70
2019-03-10T06:02:09.503Z,92.80
2019-03-10T06:04:39.939Z,92.80
2019-03-10T06:07:10.378Z,92.70
2019-03-10T06:09:40.857Z,92.80
2019-03-10T06:12:11.330Z,92.70
2019-03-10T06:14:41.797Z,92.70
2019-03-10T06:17:12.247Z,92.70
2019-03-10T06:19:42.711Z,92.70
2019-03-10T06:22:13.204Z,92.70
2019-03-10T06:24:43.655Z,92.70
2019-03-10T06:27:14.101Z,92.70
2019-03-10T06:29:44.562Z,92.80
2019-03-10T06:32:15.018Z,92.80
2019-03-10T06:34:45.511Z,92.70
2019-03-10T06:37:16.001Z,92.80
2019-03-10T06:39:47.213Z,92.80
2019-03-10T06:42:17.685Z,92.80
2019-03-10T06:44:48.829Z,92.80
2019-03-10T06:47:23.816Z,92.80
2019-03-10T06:49:55.603Z,92.80
2019-03-10T06:53:11.090Z,92.80
2019-03-10T06:55:38.616Z,92.80
2019-03-10T06:58:09.241Z,92.50
2019-03-10T07:00:40.022Z,92.40
2019-03-10T07:03:10.578Z,92.20
2019-03-10T07:05:41.080Z,92.20
2019-03-10T07:08:11.564Z,92.10
2019-03-10T07:10:42.049Z,92.00
2019-03-10T07:13:12.488Z,91.90
2019-03-10T07:15:43.081Z,91.80
2019-03-10T07:18:13.583Z,91.80
2019-03-10T07:20:44.408Z,91.70
2019-03-10T07:23:17.234Z,91.50
2019-03-10T07:25:50.680Z,91.20
2019-03-10T07:28:29.789Z,91.20
2019-03-10T07:31:23.025Z,91.20
2019-03-10T07:34:07.707Z,91.00
2019-03-10T07:37:05.261Z,91.10
2019-03-10T07:39:43.875Z,91.20
2019-03-10T07:42:33.495Z,91.30
2019-03-10T07:45:18.661Z,91.50
2019-03-10T07:48:08.368Z,91.50
2019-03-10T07:50:56.638Z,91.70
2019-03-10T07:53:46.177Z,91.90
2019-03-10T07:56:38.033Z,92.10
2019-03-10T07:59:33.487Z,92.30
2019-03-10T08:02:11.613Z,92.50
2019-03-10T08:05:00.028Z,92.70
2019-03-10T08:07:47.159Z,92.70
2019-03-10T08:10:42.812Z,92.70
2019-03-10T08:13:32.996Z,92.70
2019-03-10T08:16:18.275Z,92.80
2019-03-10T08:19:14.361Z,92.80
2019-03-10T08:22:03.885Z,92.60
2019-03-10T08:24:52.047Z,92.70
2019-03-10T08:27:41.112Z,92.90
2019-03-10T08:30:39.633Z,92.90
2019-03-10T08:33:27.713Z,93.10
2019-03-10T08:36:17.193Z,93.10
2019-03-10T08:39:06.681Z,93.30
2019-03-10T08:41:59.238Z,93.20
2019-03-10T08:44:36.941Z,93.40
2019-03-10T08:47:17.530Z,93.40
2019-03-10T08:50:02.657Z,93.50
2019-03-10T08:52:46.436Z,93.50
2019-03-10T08:55:39.045Z,93.50
2019-03-10T08:58:19.305Z,93.50
2019-03-10T09:01:10.034Z,93.40
2019-03-10T09:03:58.988Z,93.30
2019-03-10T09:06:45.279Z,93.00
2019-03-10T09:09:32.936Z,92.70
2019-03-10T09:12:10.474Z,92.60
2019-03-10T09:14:58.585Z,92.50
2019-03-10T09:17:47.734Z,92.00
2019-03-10T09:20:26.541Z,91.70
2019-03-10T09:23:15.054Z,91.40
2019-03-10T09:26:02.116Z,91.10
2019-03-10T09:28:48.597Z,91.00
2019-03-10T09:31:43.947Z,90.60
2019-03-10T09:34:26.439Z,90.60
2019-03-10T09:37:19.897Z,90.50
2019-03-10T09:40:27.525Z,90.40
2019-03-10T09:43:15.865Z,90.30
2019-03-10T09:46:05.353Z,90.20
2019-03-10T09:49:10.718Z,90.30
2019-03-10T09:51:48.176Z,90.40
2019-03-10T09:54:30.150Z,90.30
2019-03-10T09:57:08.517Z,90.20
2019-03-10T09:59:56.497Z,90.10
2019-03-10T10:02:46.001Z,89.80
2019-03-10T10:05:35.504Z,90.00
2019-03-10T10:08:16.096Z,89.70
2019-03-10T10:11:11.438Z,89.30
2019-03-10T10:14:03.802Z,89.10
2019-03-10T10:16:44.029Z,89.00
2019-03-10T10:19:36.584Z,88.20
2019-03-10T10:22:22.718Z,87.10
2019-03-10T10:25:18.427Z,86.60
2019-03-10T10:28:06.578Z,86.00
2019-03-10T10:30:59.475Z,85.80
2019-03-10T10:34:04.055Z,85.40
2019-03-10T10:36:48.235Z,84.50
2019-03-10T10:39:24.587Z,85.00
2019-03-10T10:42:17.117Z,84.50
2019-03-10T10:45:18.980Z,84.20
2019-03-10T10:47:57.954Z,83.30
2019-03-10T10:51:03.123Z,81.80
2019-03-10T10:53:51.214Z,81.10
2019-03-10T10:56:32.632Z,81.20
2019-03-10T10:59:11.114Z,80.30
2019-03-10T11:02:00.622Z,79.80
2019-03-10T11:04:45.760Z,79.70
2019-03-10T11:07:53.384Z,79.70
2019-03-10T11:10:43.133Z,77.30
2019-03-10T11:13:20.221Z,76.40
2019-03-10T11:16:22.275Z,76.80
2019-03-10T11:19:18.218Z,77.10
2019-03-10T11:22:07.789Z,78.20
2019-03-10T11:24:59.221Z,78.70
2019-03-10T11:27:55.046Z,79.60
2019-03-10T11:30:42.213Z,81.00
2019-03-10T11:33:31.739Z,82.30
2019-03-10T11:36:18.820Z,84.10
2019-03-10T11:39:05.361Z,83.30
2019-03-10T11:42:10.534Z,84.00
2019-03-10T11:45:18.286Z,83.80
2019-03-10T11:48:14.041Z,84.40
2019-03-10T11:51:02.193Z,84.60
2019-03-10T11:53:57.613Z,85.50
2019-03-10T11:56:51.250Z,86.40
2019-03-10T11:59:32.201Z,86.50
2019-03-10T12:02:18.417Z,86.60
2019-03-10T12:05:05.629Z,87.20
2019-03-10T12:07:52.257Z,87.60
2019-03-10T12:10:22.958Z,88.40
2019-03-10T12:12:54.741Z,89.00
2019-03-10T12:15:25.171Z,89.40
2019-03-10T12:17:56.018Z,89.30
2019-03-10T12:20:26.480Z,88.70
2019-03-10T12:22:56.926Z,88.90
2019-03-10T12:25:27.366Z,88.70
2019-03-10T12:27:58.274Z,86.80
2019-03-10T12:30:28.779Z,86.20
2019-03-10T12:32:59.256Z,87.10
2019-03-10T12:35:34.356Z,82.60
2019-03-10T12:38:02.185Z,80.90
2019-03-10T12:40:32.635Z,79.30
2019-03-10T12:43:03.184Z,75.50
2019-03-10T12:45:33.721Z,76.30
2019-03-10T12:48:04.342Z,72.70
2019-03-10T12:50:34.865Z,71.70
2019-03-10T12:53:05.467Z,72.80
2019-03-10T12:55:35.906Z,73.90
2019-03-10T12:58:06.430Z,73.20
2019-03-10T13:00:37.260Z,69.20
2019-03-10T13:03:07.716Z,69.70
2019-03-10T13:05:38.429Z,69.00
2019-03-10T13:08:09.016Z,69.40
2019-03-10T13:10:39.459Z,70.40
2019-03-10T13:13:09.993Z,69.70
2019-03-10T13:15:40.468Z,69.60
2019-03-10T13:18:11.082Z,67.80
2019-03-10T13:20:41.915Z,67.70
2019-03-10T13:23:12.547Z,69.00
2019-03-10T13:25:42.989Z,69.40
2019-03-10T13:28:13.441Z,69.70
2019-03-10T13:30:43.869Z,70.60
2019-03-10T13:33:14.532Z,68.70
2019-03-10T13:35:44.988Z,66.10
2019-03-10T13:38:15.530Z,66.30
2019-03-10T13:40:46.063Z,67.20
2019-03-10T13:43:16.549Z,65.80
2019-03-10T13:45:47.037Z,62.50
2019-03-10T13:48:17.582Z,60.60
2019-03-10T13:50:49.098Z,60.80
2019-03-10T13:53:19.588Z,61.50
2019-03-10T13:55:50.039Z,63.00
2019-03-10T13:58:20.545Z,65.20
2019-03-10T14:00:51.400Z,67.00
2019-03-10T14:03:22.658Z,66.40
2019-03-10T14:05:53.178Z,66.60
2019-03-10T14:08:23.721Z,67.10
2019-03-10T14:10:54.161Z,66.10
2019-03-10T14:13:25.034Z,66.80
2019-03-10T14:15:55.553Z,67.70
2019-03-10T14:18:26.367Z,69.70
2019-03-10T14:20:57.791Z,70.50
2019-03-10T14:23:28.555Z,71.20
2019-03-10T14:25:59.174Z,72.00
2019-03-10T14:28:29.821Z,72.60
2019-03-10T14:31:00.367Z,75.70
2019-03-10T14:33:31.081Z,76.90
2019-03-10T14:36:01.535Z,76.60
2019-03-10T14:38:32.134Z,76.90
2019-03-10T14:41:02.568Z,77.00
2019-03-10T14:43:33.433Z,77.20
2019-03-10T14:46:03.854Z,76.70
2019-03-10T14:48:34.685Z,74.90
2019-03-10T14:51:06.122Z,73.80
2019-03-10T14:53:36.609Z,74.60
2019-03-10T14:56:07.078Z,74.90
2019-03-10T14:58:37.924Z,74.70
2019-03-10T15:01:08.357Z,74.10
2019-03-10T15:03:38.873Z,73.20
2019-03-10T15:06:09.306Z,72.40
2019-03-10T15:08:39.777Z,72.90
2019-03-10T15:11:10.238Z,72.60
2019-03-10T15:13:41.258Z,72.80
2019-03-10T15:16:13.507Z,72.30
2019-03-10T15:18:44.385Z,73.10
2019-03-10T15:21:14.849Z,71.50
2019-03-10T15:23:45.537Z,68.50
2019-03-10T15:26:16.074Z,66.10
2019-03-10T15:28:50.203Z,64.80
2019-03-10T15:31:20.159Z,65.00
2019-03-10T15:33:50.698Z,65.50
2019-03-10T15:36:21.171Z,66.70
2019-03-10T15:38:51.773Z,67.90
2019-03-10T15:41:22.317Z,68.00
2019-03-10T15:43:52.867Z,68.40
2019-03-10T15:46:23.372Z,67.50
2019-03-10T15:48:54.213Z,66.60
2019-03-10T15:51:24.953Z,67.40
2019-03-10T15:53:55.573Z,68.50
2019-03-10T15:56:25.997Z,68.20
2019-03-10T15:58:56.463Z,69.10
2019-03-10T16:01:27.022Z,69.40
2019-03-10T16:03:58.963Z,68.50
2019-03-10T16:06:29.561Z,68.60
2019-03-10T16:09:00.265Z,68.70
2019-03-10T16:11:30.762Z,68.30
2019-03-10T16:14:01.277Z,67.40
2019-03-10T16:16:31.755Z,66.80
2019-03-10T16:19:02.325Z,66.70
2019-03-10T16:21:32.941Z,68.50
2019-03-10T16:24:03.720Z,69.70
2019-03-10T16:26:34.253Z,71.00
2019-03-10T16:29:05.079Z,71.60
2019-03-10T16:31:35.898Z,72.00
2019-03-10T16:34:06.385Z,68.90
2019-03-10T16:36:36.981Z,68.00
2019-03-10T16:39:09.738Z,68.00
2019-03-10T16:41:40.286Z,68.40
2019-03-10T16:44:11.044Z,69.90
2019-03-10T16:46:41.714Z,71.60
2019-03-10T16:49:13.222Z,72.10
2019-03-10T16:51:43.666Z,72.90
2019-03-10T16:54:15.329Z,73.60
2019-03-10T16:56:45.777Z,74.00
2019-03-10T16:59:16.245Z,74.40
2019-03-10T17:01:46.718Z,74.90
2019-03-10T17:04:17.619Z,75.40
2019-03-10T17:06:48.070Z,76.10
2019-03-10T17:09:21.614Z,77.00
2019-03-10T17:11:52.098Z,78.00
2019-03-10T17:14:22.626Z,78.20
2019-03-10T17:16:53.154Z,78.10
2019-03-10T17:19:23.649Z,77.90
2019-03-10T17:21:54.096Z,78.20
2019-03-10T17:24:24.584Z,77.90
2019-03-10T17:26:55.058Z,77.60
2019-03-10T17:29:25.606Z,77.20
2019-03-10T17:31:56.377Z,77.20
2019-03-10T17:34:26.870Z,76.80
2019-03-10T17:36:57.301Z,76.30
2019-03-10T17:39:27.809Z,76.40
2019-03-10T17:41:58.786Z,76.20
2019-03-10T17:44:40.255Z,76.10
2019-03-10T17:47:01.516Z,76.10
2019-03-10T17:49:32.010Z,76.10
2019-03-10T17:52:02.459Z,76.70
2019-03-10T17:54:33.917Z,78.50
2019-03-10T17:57:04.469Z,80.30
2019-03-10T17:59:35.018Z,81.00
2019-03-10T18:02:09.322Z,81.60
2019-03-10T18:04:38.438Z,82.50
2019-03-10T18:07:08.887Z,83.50
2019-03-10T18:09:39.378Z,84.40
2019-03-10T18:12:09.855Z,84.80
2019-03-10T18:14:41.281Z,85.20
2019-03-10T18:17:11.793Z,85.20
2019-03-10T18:19:42.480Z,85.60
2019-03-10T18:22:13.357Z,85.80
2019-03-10T18:24:44.107Z,86.00
2019-03-10T18:27:14.776Z,86.80
2019-03-10T18:29:45.318Z,86.90
2019-03-10T18:32:15.961Z,86.70
2019-03-10T18:34:46.526Z,87.30
2019-03-10T18:37:16.992Z,87.60
2019-03-10T18:39:47.720Z,88.50
2019-03-10T18:42:18.287Z,88.90
2019-03-10T18:44:49.336Z,88.90
2019-03-10T18:47:20.343Z,88.90
2019-03-10T18:49:51.130Z,89.20
2019-03-10T18:52:22.135Z,89.80
2019-03-10T18:54:52.686Z,90.30
2019-03-10T18:57:23.304Z,89.80
2019-03-10T18:59:54.068Z,90.00
2019-03-10T19:02:24.773Z,89.40
2019-03-10T19:04:55.377Z,89.20
2019-03-10T19:07:26.186Z,89.30
2019-03-10T19:09:56.681Z,89.10
2019-03-10T19:12:27.227Z,88.50
2019-03-10T19:14:58.145Z,88.60
2019-03-10T19:17:29.004Z,87.90
2019-03-10T19:19:59.974Z,87.70
2019-03-10T19:22:33.631Z,87.30
2019-03-10T19:25:04.373Z,85.80
2019-03-10T19:27:36.096Z,85.50
2019-03-10T19:30:07.548Z,84.60
2019-03-10T19:32:38.944Z,85.20
2019-03-10T19:35:11.433Z,84.90
2019-03-10T19:37:42.110Z,83.50
2019-03-10T19:40:14.102Z,83.60
2019-03-10T19:42:45.357Z,83.10
2019-03-10T19:45:16.210Z,82.30
2019-03-10T19:47:46.667Z,82.00
2019-03-10T19:50:17.173Z,82.10
2019-03-10T19:52:47.729Z,81.30
2019-03-10T19:55:18.408Z,81.20
2019-03-10T19:57:48.996Z,81.40
2019-03-10T20:00:21.356Z,82.20
2019-03-10T20:02:53.738Z,81.00
2019-03-10T20:05:24.509Z,80.20
2019-03-10T20:07:55.854Z,80.70
2019-03-10T20:10:27.703Z,80.40
2019-03-10T20:12:58.443Z,80.00
2019-03-10T20:15:29.384Z,78.60
2019-03-10T20:18:00.509Z,78.60
2019-03-10T20:20:31.255Z,75.10
2019-03-10T20:23:01.938Z,73.50
2019-03-10T20:25:32.626Z,75.00
2019-03-10T20:28:04.855Z,72.50
2019-03-10T20:30:35.598Z,71.70
2019-03-10T20:33:06.658Z,72.30
2019-03-10T20:35:37.295Z,72.10
2019-03-10T20:38:08.006Z,70.80
2019-03-10T20:40:39.050Z,70.70
2019-03-10T20:43:09.574Z,70.40
2019-03-10T20:45:40.213Z,70.20
2019-03-10T20:48:11.014Z,70.50
2019-03-10T20:50:41.730Z,70.30
2019-03-10T20:53:12.740Z,70.40
2019-03-10T20:55:43.450Z,70.90
2019-03-10T20:58:14.094Z,71.40
2019-03-10T21:00:44.628Z,71.30
2019-03-10T21:03:15.589Z,70.80
2019-03-10T21:05:46.211Z,70.70
2019-03-10T21:08:16.879Z,71.00
2019-03-10T21:10:47.628Z,70.20
2019-03-10T21:13:18.177Z,70.40
2019-03-10T21:19:25.274Z,69.70
2019-03-10T21:21:56.206Z,68.80
2019-03-10T21:24:26.954Z,68.80
2019-03-10T21:26:57.661Z,68.60
2019-03-10T21:29:28.616Z,68.20
2019-03-10T21:32:11.138Z,68.30
2019-03-10T21:34:41.686Z,68.00
2019-03-10T21:37:13.255Z,68.00
2019-03-10T21:39:43.773Z,67.90
2019-03-10T21:42:14.224Z,68.30
2019-03-10T21:44:44.719Z,67.80
2019-03-10T21:47:15.331Z,68.20
2019-03-10T21:49:45.804Z,68.70
2019-03-10T21:52:18.900Z,68.60
2019-03-10T21:54:48.501Z,68.80
2019-03-10T21:57:19.034Z,69.70
2019-03-10T21:59:49.489Z,70.20
2019-03-10T22:02:19.955Z,70.50
2019-03-10T22:04:50.786Z,70.70
2019-03-10T22:07:21.701Z,70.80
2019-03-10T22:09:52.535Z,70.70
2019-03-10T22:12:23.286Z,70.40
2019-03-10T22:14:53.828Z,69.80
2019-03-10T22:17:24.257Z,69.70
2019-03-10T22:19:54.776Z,69.80
2019-03-10T22:22:25.582Z,69.70
2019-03-10T22:24:56.349Z,69.70
2019-03-10T22:27:27.141Z,69.50
2019-03-10T22:29:57.996Z,70.00
2019-03-10T22:32:28.600Z,69.40
2019-03-10T22:34:59.057Z,69.60
2019-03-10T22:37:29.568Z,69.80
2019-03-10T22:40:00.010Z,69.90
2019-03-10T22:42:30.676Z,70.00
2019-03-10T22:45:01.443Z,70.50
2019-03-10T22:47:33.703Z,70.80
2019-03-10T22:50:04.276Z,70.90
2019-03-10T22:52:34.733Z,71.10
2019-03-10T22:55:05.629Z,71.20
2019-03-10T22:57:36.089Z,71.50
2019-03-10T23:00:11.821Z,71.20
2019-03-10T23:02:44.024Z,71.00
2019-03-10T23:05:14.660Z,70.70
2019-03-10T23:07:45.349Z,70.30
2019-03-10T23:10:16.252Z,70.40
2019-03-10T23:12:46.964Z,70.00
2019-03-10T23:15:17.481Z,68.70
2019-03-10T23:17:48.116Z,68.80
2019-03-10T23:20:18.721Z,68.20
2019-03-10T23:22:49.256Z,67.90
2019-03-10T23:25:19.748Z,67.60
2019-03-10T23:27:50.605Z,67.10
2019-03-10T23:30:21.319Z,67.30
2019-03-10T23:32:52.204Z,67.50
2019-03-10T23:35:22.721Z,67.20
2019-03-10T23:37:53.166Z,67.00
2019-03-10T23:40:23.637Z,67.70
2019-03-10T23:42:55.040Z,66.90
2019-03-10T23:45:25.565Z,67.20
2019-03-10T23:47:56.059Z,67.20
2019-03-10T23:50:26.516Z,66.70
2019-03-10T23:52:57.073Z,66.40
2019-03-10T23:55:27.537Z,65.50
2019-03-10T23:58:00.336Z,64.90
